createdAt,value
2022-12-03T14:09:59.456Z,66.50
2022-12-03T14:12:37.748Z,66.30
2022-12-03T14:15:06.856Z,66.40
2022-12-03T14:17:34.932Z,66.40
2022-12-03T14:20:03.731Z,66.10
2022-12-03T14:22:31.835Z,66.40
2022-12-03T14:25:01.218Z,66.30
2022-12-03T14:27:29.268Z,66.30
2022-12-03T14:29:57.565Z,66.00
2022-12-03T14:32:26.166Z,66.20
2022-12-03T14:34:54.199Z,66.30
2022-12-03T14:37:22.273Z,66.20
2022-12-03T14:39:50.299Z,66.30
2022-12-03T14:42:19.709Z,66.10
2022-12-03T14:44:48.725Z,66.00
2022-12-03T14:47:18.449Z,66.00
2022-12-03T14:49:46.580Z,66.10
2022-12-03T14:52:14.829Z,66.10
2022-12-03T14:54:43.204Z,66.10
2022-12-03T14:57:12.475Z,66.10
2022-12-03T14:59:47.920Z,66.20
2022-12-03T15:02:16.495Z,66.20
2022-12-03T15:04:44.731Z,65.90
2022-12-03T15:07:13.135Z,66.10
2022-12-03T15:09:41.185Z,66.20
2022-12-03T15:12:09.412Z,66.10
2022-12-03T15:14:37.480Z,66.10
2022-12-03T15:17:07.000Z,66.00
2022-12-03T15:19:35.133Z,66.10
2022-12-03T15:22:03.152Z,66.00
2022-12-03T15:24:31.193Z,65.90
2022-12-03T15:26:59.270Z,65.90
2022-12-03T15:29:27.331Z,66.10
2022-12-03T15:31:55.468Z,66.20
2022-12-03T15:34:24.909Z,66.10
2022-12-03T15:36:53.123Z,66.00
2022-12-03T15:39:21.177Z,66.00
2022-12-03T15:41:49.424Z,66.10
2022-12-03T15:44:17.452Z,66.00
2022-12-03T15:46:45.941Z,65.90
2022-12-03T15:49:14.106Z,65.90
2022-12-03T15:51:45.834Z,66.10
2022-12-03T15:54:13.892Z,66.00
2022-12-03T15:56:42.024Z,66.00
2022-12-03T15:59:10.066Z,66.00
2022-12-03T16:01:41.067Z,66.00
2022-12-03T16:04:09.149Z,65.90
2022-12-03T16:06:37.180Z,65.90
2022-12-03T16:09:06.651Z,66.00
2022-12-03T16:11:34.750Z,65.80
2022-12-03T16:14:02.905Z,66.00
2022-12-03T16:16:31.115Z,65.90
2022-12-03T16:18:59.244Z,65.80
2022-12-03T16:21:27.543Z,66.00
2022-12-03T16:23:55.729Z,65.80
2022-12-03T16:26:25.195Z,65.80
2022-12-03T16:28:53.248Z,65.80
2022-12-03T16:31:21.645Z,65.90
2022-12-03T16:33:49.750Z,65.70
2022-12-03T16:36:17.836Z,65.70
2022-12-03T16:38:45.965Z,65.60
2022-12-03T16:41:14.008Z,65.60
2022-12-03T16:43:46.063Z,65.70
2022-12-03T16:46:26.609Z,65.70
2022-12-03T16:48:55.518Z,65.70
2022-12-03T16:51:23.606Z,65.80
2022-12-03T16:53:51.691Z,65.90
2022-12-03T16:56:30.729Z,65.80
2022-12-03T16:59:00.689Z,65.70
2022-12-03T17:01:29.227Z,65.60
2022-12-03T17:03:57.433Z,65.60
2022-12-03T17:06:25.473Z,65.50
2022-12-03T17:08:53.566Z,65.70
2022-12-03T17:11:21.689Z,65.60
2022-12-03T17:13:55.748Z,65.50
2022-12-03T17:16:25.448Z,65.50
2022-12-03T17:18:53.638Z,65.60
2022-12-03T17:21:21.771Z,65.40
2022-12-03T17:23:51.104Z,65.30
2022-12-03T17:26:19.256Z,65.50
2022-12-03T17:28:47.346Z,65.60
2022-12-03T17:31:15.471Z,65.60
2022-12-03T17:33:44.953Z,65.30
2022-12-03T17:36:13.059Z,65.30
2022-12-03T17:38:41.202Z,65.60
2022-12-03T17:41:09.303Z,65.50
2022-12-03T17:43:37.393Z,65.40
2022-12-03T17:46:08.434Z,65.60
2022-12-03T17:48:36.559Z,65.60
2022-12-03T17:51:06.216Z,65.30
2022-12-03T17:53:34.322Z,65.40
2022-12-03T17:56:02.424Z,65.50
2022-12-03T17:58:30.474Z,65.70
2022-12-03T18:01:02.821Z,65.40
2022-12-03T18:03:31.404Z,65.40
2022-12-03T18:05:59.540Z,65.30
2022-12-03T18:08:29.035Z,65.20
2022-12-03T18:10:57.135Z,65.40
2022-12-03T18:13:25.190Z,65.30
2022-12-03T18:15:53.385Z,65.30
2022-12-03T18:18:24.281Z,65.30
2022-12-03T18:20:53.494Z,65.50
2022-12-03T18:23:21.567Z,65.20
2022-12-03T18:25:51.018Z,65.50
2022-12-03T18:28:19.223Z,65.40
2022-12-03T18:30:52.277Z,65.20
2022-12-03T18:33:21.397Z,65.50
2022-12-03T18:35:53.924Z,65.40
2022-12-03T18:38:21.988Z,65.30
2022-12-03T18:40:51.496Z,65.40
2022-12-03T18:43:20.220Z,65.40
2022-12-03T18:45:48.322Z,65.10
2022-12-03T18:48:17.312Z,65.20
2022-12-03T18:50:45.460Z,65.50
2022-12-03T18:53:13.721Z,65.50
2022-12-03T18:55:42.078Z,65.40
2022-12-03T18:58:11.550Z,65.30
2022-12-03T19:00:39.855Z,65.30
2022-12-03T19:03:08.251Z,65.40
2022-12-03T19:05:36.557Z,65.40
2022-12-03T19:10:57.122Z,65.40
2022-12-03T19:13:27.271Z,65.10
2022-12-03T19:15:56.021Z,65.30
2022-12-03T19:18:24.363Z,65.20
2022-12-03T19:20:52.520Z,65.30
2022-12-03T19:23:20.558Z,65.20
2022-12-03T19:25:59.161Z,65.20
2022-12-03T19:28:28.850Z,65.30
2022-12-03T19:30:58.864Z,65.10
2022-12-03T19:33:28.694Z,65.30
2022-12-03T19:35:57.321Z,65.30
2022-12-03T19:38:25.678Z,65.10
2022-12-03T19:41:00.296Z,65.30
2022-12-03T19:43:31.725Z,65.20
2022-12-03T19:46:03.650Z,65.10
2022-12-03T19:48:31.809Z,65.30
2022-12-03T19:51:26.258Z,65.10
2022-12-03T19:53:50.092Z,65.20
2022-12-03T19:56:19.006Z,65.20
2022-12-03T19:58:48.403Z,65.10
2022-12-03T20:01:17.823Z,65.30
2022-12-03T20:03:47.085Z,65.20
2022-12-03T20:06:15.694Z,65.10
2022-12-03T20:08:43.880Z,65.10
2022-12-03T20:11:13.135Z,65.20
2022-12-03T20:13:41.217Z,65.30
2022-12-03T20:19:08.220Z,65.10
2022-12-03T20:21:37.294Z,65.20
2022-12-03T20:24:05.915Z,65.20
2022-12-03T20:26:34.228Z,65.20
2022-12-03T20:29:02.476Z,65.10
2022-12-03T20:31:32.504Z,65.20
2022-12-03T20:34:01.463Z,65.10
2022-12-03T20:36:30.700Z,65.10
2022-12-03T20:39:00.854Z,65.10
2022-12-03T20:41:29.230Z,65.30
2022-12-03T20:43:57.381Z,65.10
2022-12-03T20:46:26.582Z,65.00
2022-12-03T20:48:56.425Z,65.10
2022-12-03T20:51:27.200Z,65.00
2022-12-03T20:53:55.265Z,65.20
2022-12-03T20:56:24.140Z,65.00
2022-12-03T20:58:55.707Z,65.20
2022-12-03T21:01:24.426Z,65.20
2022-12-03T21:03:53.139Z,64.90
2022-12-03T21:06:22.702Z,64.90
2022-12-03T21:08:50.753Z,65.00
2022-12-03T21:11:19.792Z,65.10
2022-12-03T21:13:47.964Z,65.30
2022-12-03T21:16:16.994Z,65.20
2022-12-03T21:18:45.089Z,65.00
2022-12-03T21:21:13.903Z,65.20
2022-12-03T21:23:43.493Z,65.10
2022-12-03T21:26:12.629Z,65.20
2022-12-03T21:28:41.180Z,65.10
2022-12-03T21:31:10.768Z,65.10
2022-12-03T21:33:39.081Z,64.90
2022-12-03T21:36:08.294Z,65.00
2022-12-03T21:38:36.554Z,64.90
2022-12-03T21:41:06.301Z,65.10
2022-12-03T21:43:34.469Z,65.00
2022-12-03T21:47:10.159Z,65.10
2022-12-03T21:48:53.775Z,65.10
2022-12-03T21:51:21.861Z,65.00
2022-12-03T21:53:49.910Z,65.20
2022-12-03T21:56:20.073Z,65.00
2022-12-03T21:58:48.118Z,65.10
2022-12-03T22:01:16.993Z,65.10
2022-12-03T22:03:45.158Z,65.10
2022-12-03T22:06:13.278Z,65.10
2022-12-03T22:08:47.282Z,64.90
2022-12-03T22:11:16.697Z,64.90
2022-12-03T22:13:46.241Z,65.10
2022-12-03T22:16:15.658Z,65.00
2022-12-03T22:18:43.923Z,64.80
2022-12-03T22:21:12.654Z,64.90
2022-12-03T22:23:40.780Z,65.10
2022-12-03T22:26:10.145Z,65.00
2022-12-03T22:28:38.236Z,64.90
2022-12-03T22:31:08.461Z,65.00
2022-12-03T22:33:36.838Z,65.00
2022-12-03T22:36:06.089Z,65.00
2022-12-03T22:38:34.216Z,64.90
2022-12-03T22:41:05.590Z,64.90
2022-12-03T22:43:33.712Z,64.90
2022-12-03T22:46:01.823Z,65.00
2022-12-03T22:48:31.315Z,64.90
2022-12-03T22:50:59.421Z,65.00
2022-12-03T22:53:27.478Z,64.90
2022-12-03T22:55:56.008Z,65.00
2022-12-03T22:58:24.644Z,64.90
2022-12-03T23:00:52.935Z,65.10
2022-12-03T23:03:22.465Z,65.00
2022-12-03T23:05:51.922Z,64.90
2022-12-03T23:08:21.575Z,65.00
2022-12-03T23:10:50.478Z,64.80
2022-12-03T23:13:18.711Z,65.00
2022-12-03T23:15:47.125Z,64.90
2022-12-03T23:18:15.253Z,65.00
2022-12-03T23:20:44.013Z,64.90
2022-12-03T23:23:13.451Z,65.00
2022-12-03T23:25:41.812Z,64.90
2022-12-03T23:28:10.148Z,64.70
2022-12-03T23:30:38.436Z,64.90
2022-12-03T23:33:06.623Z,64.80
2022-12-03T23:35:34.810Z,64.80
2022-12-03T23:38:03.005Z,64.80
2022-12-03T23:40:32.412Z,64.70
2022-12-03T23:43:00.504Z,65.00
2022-12-03T23:45:28.560Z,65.00
2022-12-03T23:47:59.395Z,64.80
2022-12-03T23:50:27.464Z,64.80
2022-12-03T23:52:55.551Z,64.90
2022-12-03T23:55:24.263Z,64.90
2022-12-03T23:57:53.735Z,64.90
